Mamolino 2061 — 9HB3033 — position and weather

sailwx.info

Track history (hours):
 
Tides and Currents Weather Stations Pressure Air Temp Water Temp Dewpoint Dewpoint Depression Visibility Wind Speed Wind Dir Waves Ship Positions

Mamolino 2061

Last reported at 2018-Feb-14 13:45 UTC. Time now 2018-Feb-21 05:27 UTC.
Position S 05°05' E 011°33'.

Length 20 m; draft 1 m.

Type: Passenger vessel. MMSI: 229226000.

Date/timePositionNaut miles runAvg speedWind from/ knotsBaromVisibWave heightAir tempDewpointWater temp
2018-Feb-14 13:45S 05°05' E 011°33'518.4
2018-Feb-14 13:30S 05°09' E 011°30'917.6
2018-Feb-14 13:00S 05°16' E 011°24'2 3.9
2018-Feb-14 12:30S 05°17' E 011°23'2 3.6
2018-Feb-14 12:00S 05°19' E 011°23'0 0.0
2018-Feb-14 11:30S 05°19' E 011°23'0 0.1
2018-Feb-14 11:00S 05°19' E 011°23'0 0.1
2018-Feb-14 10:30S 05°19' E 011°23'0 0.0
2018-Feb-14 10:00S 05°19' E 011°23'0 0.1
2018-Feb-14 09:30S 05°19' E 011°23'0 0.0
2018-Feb-14 09:00S 05°19' E 011°23'0 0.0
2018-Feb-14 08:30S 05°19' E 011°23'0 0.0
2018-Feb-14 08:00S 05°19' E 011°23'2 3.5
2018-Feb-14 07:30S 05°17' E 011°23'2 3.3
2018-Feb-14 07:00S 05°19' E 011°23'0 0.0
2018-Feb-14 06:30S 05°19' E 011°23'0 0.0
2018-Feb-14 05:58S 05°19' E 011°23'0 0.0
2018-Feb-14 05:30S 05°19' E 011°23'2 3.4
2018-Feb-14 05:00S 05°17' E 011°23'2 3.4
2018-Feb-14 04:30S 05°19' E 011°23'0 0.1
2018-Feb-14 04:00S 05°19' E 011°23'0 0.0
2018-Feb-14 03:29S 05°19' E 011°23'0 0.0
2018-Feb-14 03:00S 05°19' E 011°23'0 0.0
2018-Feb-14 02:30S 05°19' E 011°23'0 0.0
2018-Feb-14 02:00S 05°19' E 011°23'0 0.0
2018-Feb-14 01:30S 05°19' E 011°23'0 0.0
2018-Feb-14 01:00S 05°19' E 011°23'0 0.0
2018-Feb-14 00:30S 05°19' E 011°23'0 0.0
2018-Feb-14 00:00S 05°19' E 011°23'0 0.0
2018-Feb-13 23:30S 05°19' E 011°23'0 0.0
2018-Feb-13 23:00S 05°19' E 011°23'0 0.1
2018-Feb-13 22:30S 05°19' E 011°23'0 0.0
2018-Feb-13 22:00S 05°19' E 011°23'0 0.0
2018-Feb-13 21:30S 05°19' E 011°23'0 0.1
2018-Feb-13 20:58S 05°19' E 011°23'0 0.0
2018-Feb-13 20:30S 05°19' E 011°23'0 0.0
2018-Feb-13 20:00S 05°19' E 011°23'0 0.0
2018-Feb-13 19:30S 05°19' E 011°23'0 0.0
2018-Feb-13 19:00S 05°19' E 011°23'0 0.0
2018-Feb-13 18:28S 05°19' E 011°23'0 0.0
2018-Feb-13 18:01S 05°19' E 011°23'0 0.1
2018-Feb-13 17:30S 05°19' E 011°23'1 2.6
2018-Feb-13 17:00S 05°17' E 011°23'1 2.6
2018-Feb-13 16:30S 05°19' E 011°23'0 0.0
2018-Feb-13 16:00S 05°19' E 011°23'0 0.0
2018-Feb-13 15:30S 05°19' E 011°23'0 0.0
2018-Feb-13 15:00S 05°19' E 011°23'0 0.0
2018-Feb-13 14:30S 05°19' E 011°23'0 0.0
2018-Feb-13 14:00S 05°19' E 011°23'0 0.0
2018-Feb-13 13:30S 05°19' E 011°23'0 0.0
2018-Feb-13 13:00S 05°19' E 011°23'0 0.0
2018-Feb-13 12:28S 05°19' E 011°23'0 0.0
2018-Feb-13 11:55S 05°19' E 011°23'0 0.0
2018-Feb-13 11:30S 05°19' E 011°23'0 0.0
2018-Feb-13 11:00S 05°19' E 011°23'0 0.1
2018-Feb-13 10:30S 05°19' E 011°23'0 0.1
2018-Feb-13 09:59S 05°19' E 011°23'0 0.1
2018-Feb-13 09:30S 05°19' E 011°23'510.1
2018-Feb-13 08:59S 05°15' E 011°27'7 2.2
2018-Feb-13 05:39S 05°10' E 011°33'320.3
2018-Feb-13 05:29S 05°12' E 011°30'917.6
2018-Feb-13 05:00S 05°17' E 011°23'2 4.0
2018-Feb-13 04:30S 05°19' E 011°23'0 0.0
2018-Feb-13 04:00S 05°19' E 011°23'0 0.0
2018-Feb-13 03:30S 05°19' E 011°23'0 0.0
2018-Feb-13 03:00S 05°19' E 011°23'0 0.0
2018-Feb-13 02:30S 05°19' E 011°23'0 0.0
2018-Feb-13 02:00S 05°19' E 011°23'0 0.0
2018-Feb-13 01:30S 05°19' E 011°23'0 0.0
2018-Feb-13 01:00S 05°19' E 011°23'0 0.0
2018-Feb-13 00:30S 05°19' E 011°23'0 0.0
2018-Feb-13 00:00S 05°19' E 011°23'0 0.0
2018-Feb-12 23:30S 05°19' E 011°24'0 0.0
2018-Feb-12 22:59S 05°19' E 011°24'0 0.0
2018-Feb-12 22:30S 05°19' E 011°24'0 0.0
2018-Feb-12 22:00S 05°19' E 011°24'0 0.0
2018-Feb-12 21:30S 05°19' E 011°24'0 0.0
2018-Feb-12 21:00S 05°19' E 011°24'0 0.0
2018-Feb-12 20:30S 05°19' E 011°24'0 0.1
2018-Feb-12 20:00S 05°19' E 011°24'0 0.0
2018-Feb-12 19:30S 05°19' E 011°24'0 0.1
2018-Feb-12 19:00S 05°19' E 011°24'0 0.2
2018-Feb-12 18:30S 05°19' E 011°23'1 2.4
2018-Feb-12 17:59S 05°18' E 011°23'1 2.7
2018-Feb-12 17:30S 05°19' E 011°23'2 3.5
2018-Feb-12 17:00S 05°17' E 011°23'2 3.4
2018-Feb-12 16:30S 05°19' E 011°23'0 0.1
2018-Feb-12 15:57S 05°19' E 011°23'0 0.0
2018-Feb-12 15:30S 05°19' E 011°23'0 0.0
2018-Feb-12 14:59S 05°19' E 011°23'0 0.0
2018-Feb-12 14:30S 05°19' E 011°23'0 0.1
2018-Feb-12 14:00S 05°19' E 011°23'0 0.1
2018-Feb-12 13:29S 05°19' E 011°23'0 0.1
2018-Feb-12 13:00S 05°19' E 011°23'0 0.1
2018-Feb-12 12:28S 05°19' E 011°23'2 3.5
2018-Feb-12 12:00S 05°17' E 011°23'815.2
2018-Feb-12 11:28S 05°11' E 011°28'2 0.4
2018-Feb-12 07:24S 05°11' E 011°30'820.6
2018-Feb-12 07:00S 05°17' E 011°25'2 4.1
2018-Feb-12 06:28S 05°19' E 011°23'0 0.1
2018-Feb-12 06:00S 05°19' E 011°23'0 0.2
2018-Feb-12 05:31S 05°19' E 011°23'2 3.2
2018-Feb-12 05:00S 05°17' E 011°23'0 0.8
2018-Feb-12 04:29S 05°17' E 011°23'1 2.9
2018-Feb-12 04:00S 05°19' E 011°23'0 0.1
2018-Feb-12 03:30S 05°19' E 011°23'0 0.1
2018-Feb-12 03:01S 05°19' E 011°23'0 0.1
2018-Feb-12 02:30S 05°19' E 011°23'0 0.0
2018-Feb-12 02:01S 05°19' E 011°23'0 0.1
2018-Feb-12 01:30S 05°19' E 011°23'0 0.1
2018-Feb-12 01:00S 05°19' E 011°23'0 0.1
2018-Feb-12 00:30S 05°19' E 011°23'0 0.1
2018-Feb-12 00:01S 05°19' E 011°23'0 0.1
2018-Feb-11 23:30S 05°19' E 011°23'0 0.1
2018-Feb-11 23:00S 05°19' E 011°23'0 0.1
2018-Feb-11 22:31S 05°19' E 011°23'0 0.0
2018-Feb-11 22:00S 05°19' E 011°23'0 0.0
2018-Feb-11 21:30S 05°19' E 011°23'0 0.0
2018-Feb-11 21:00S 05°19' E 011°23'0 0.0
2018-Feb-11 20:30S 05°19' E 011°23'0 0.0
2018-Feb-11 20:00S 05°19' E 011°23'0 0.0
2018-Feb-11 19:30S 05°19' E 011°23'0 0.1
2018-Feb-11 19:00S 05°19' E 011°23'0 0.1
2018-Feb-11 18:30S 05°19' E 011°23'0 0.1
2018-Feb-11 18:00S 05°19' E 011°23'0 0.1
2018-Feb-11 17:28S 05°19' E 011°23'1 3.0
2018-Feb-11 17:00S 05°17' E 011°23'1 2.8
2018-Feb-11 16:30S 05°19' E 011°23'0 0.1
2018-Feb-11 16:00S 05°19' E 011°23'0 0.0
2018-Feb-11 15:30S 05°19' E 011°23'0 0.0
2018-Feb-11 15:00S 05°19' E 011°23'0 0.0
2018-Feb-11 14:30S 05°19' E 011°23'0 0.0
2018-Feb-11 14:00S 05°19' E 011°23'0 0.4
2018-Feb-11 13:30S 05°19' E 011°23'713.0
2018-Feb-11 12:58S 05°13' E 011°27'7 1.5
2018-Feb-11 08:22S 05°09' E 011°32'820.8
2018-Feb-11 07:58S 05°16' E 011°27'510.3
2018-Feb-11 07:30S 05°19' E 011°24'1 1.8
2018-Feb-11 07:00S 05°19' E 011°23'0 0.0
2018-Feb-11 06:29S 05°19' E 011°23'1 1.5
2018-Feb-11 05:55S 05°18' E 011°23'1 2.1
2018-Feb-11 05:30S 05°19' E 011°23'2 3.2
2018-Feb-11 05:00S 05°17' E 011°23'0 0.4
2018-Feb-11 04:29S 05°17' E 011°23'1 1.8
2018-Feb-11 04:00S 05°18' E 011°23'1 1.2
2018-Feb-11 03:29S 05°19' E 011°23'0 0.1
2018-Feb-11 03:00S 05°19' E 011°23'0 0.1
2018-Feb-11 02:30S 05°19' E 011°23'0 0.0
2018-Feb-11 02:00S 05°19' E 011°23'0 0.0
2018-Feb-11 01:30S 05°19' E 011°23'0 0.0
2018-Feb-11 01:00S 05°19' E 011°23'0 0.0
2018-Feb-11 00:30S 05°19' E 011°23'0 0.0
2018-Feb-11 00:00S 05°19' E 011°23'0 0.1
2018-Feb-10 23:28S 05°19' E 011°23'0 0.1
2018-Feb-10 23:00S 05°19' E 011°23'0 0.1
2018-Feb-10 22:29S 05°19' E 011°23'0 0.1
2018-Feb-10 22:00S 05°19' E 011°23'0 0.0
2018-Feb-10 21:21S 05°19' E 011°23'0 0.1
2018-Feb-10 20:58S 05°19' E 011°23'0 0.1
2018-Feb-10 20:29S 05°19' E 011°23'0 0.0
2018-Feb-10 20:00S 05°19' E 011°23'5 9.6
2018-Feb-10 19:30S 05°14' E 011°25'  
2018-Feb-06 10:35S 04°56' E 011°52'0 1.1
2018-Feb-06 10:30S 04°56' E 011°52'  
Track history (hours):
 
Tides and Currents Weather Stations Pressure Air Temp Water Temp Dewpoint Dewpoint Depression Visibility Wind Speed Wind Dir Waves Ship Positions

Mamolino 2061

Last reported at 2018-Feb-14 13:45 UTC. Time now 2018-Feb-21 05:27 UTC.
Position S 05°05' E 011°33'.

Length 20 m; draft 1 m.

Type: Passenger vessel. MMSI: 229226000.

Date/timePositionNaut miles runAvg speedWind from/ knotsBaromVisibWave heightAir tempDewpointWater temp
2018-Feb-14 13:45S 05°05' E 011°33'518.4
2018-Feb-14 13:30S 05°09' E 011°30'917.6
2018-Feb-14 13:00S 05°16' E 011°24'2 3.9
2018-Feb-14 12:30S 05°17' E 011°23'2 3.6
2018-Feb-14 12:00S 05°19' E 011°23'0 0.0
2018-Feb-14 11:30S 05°19' E 011°23'0 0.1
2018-Feb-14 11:00S 05°19' E 011°23'0 0.1
2018-Feb-14 10:30S 05°19' E 011°23'0 0.0
2018-Feb-14 10:00S 05°19' E 011°23'0 0.1
2018-Feb-14 09:30S 05°19' E 011°23'0 0.0
2018-Feb-14 09:00S 05°19' E 011°23'0 0.0
2018-Feb-14 08:30S 05°19' E 011°23'0 0.0
2018-Feb-14 08:00S 05°19' E 011°23'2 3.5
2018-Feb-14 07:30S 05°17' E 011°23'2 3.3
2018-Feb-14 07:00S 05°19' E 011°23'0 0.0
2018-Feb-14 06:30S 05°19' E 011°23'0 0.0
2018-Feb-14 05:58S 05°19' E 011°23'0 0.0
2018-Feb-14 05:30S 05°19' E 011°23'2 3.4
2018-Feb-14 05:00S 05°17' E 011°23'2 3.4
2018-Feb-14 04:30S 05°19' E 011°23'0 0.1
2018-Feb-14 04:00S 05°19' E 011°23'0 0.0
2018-Feb-14 03:29S 05°19' E 011°23'0 0.0
2018-Feb-14 03:00S 05°19' E 011°23'0 0.0
2018-Feb-14 02:30S 05°19' E 011°23'0 0.0
2018-Feb-14 02:00S 05°19' E 011°23'0 0.0
2018-Feb-14 01:30S 05°19' E 011°23'0 0.0
2018-Feb-14 01:00S 05°19' E 011°23'0 0.0
2018-Feb-14 00:30S 05°19' E 011°23'0 0.0
2018-Feb-14 00:00S 05°19' E 011°23'0 0.0
2018-Feb-13 23:30S 05°19' E 011°23'0 0.0
2018-Feb-13 23:00S 05°19' E 011°23'0 0.1
2018-Feb-13 22:30S 05°19' E 011°23'0 0.0
2018-Feb-13 22:00S 05°19' E 011°23'0 0.0
2018-Feb-13 21:30S 05°19' E 011°23'0 0.1
2018-Feb-13 20:58S 05°19' E 011°23'0 0.0
2018-Feb-13 20:30S 05°19' E 011°23'0 0.0
2018-Feb-13 20:00S 05°19' E 011°23'0 0.0
2018-Feb-13 19:30S 05°19' E 011°23'0 0.0
2018-Feb-13 19:00S 05°19' E 011°23'0 0.0
2018-Feb-13 18:28S 05°19' E 011°23'0 0.0
2018-Feb-13 18:01S 05°19' E 011°23'0 0.1
2018-Feb-13 17:30S 05°19' E 011°23'1 2.6
2018-Feb-13 17:00S 05°17' E 011°23'1 2.6
2018-Feb-13 16:30S 05°19' E 011°23'0 0.0
2018-Feb-13 16:00S 05°19' E 011°23'0 0.0
2018-Feb-13 15:30S 05°19' E 011°23'0 0.0
2018-Feb-13 15:00S 05°19' E 011°23'0 0.0
2018-Feb-13 14:30S 05°19' E 011°23'0 0.0
2018-Feb-13 14:00S 05°19' E 011°23'0 0.0
2018-Feb-13 13:30S 05°19' E 011°23'0 0.0
2018-Feb-13 13:00S 05°19' E 011°23'0 0.0
2018-Feb-13 12:28S 05°19' E 011°23'0 0.0
2018-Feb-13 11:55S 05°19' E 011°23'0 0.0
2018-Feb-13 11:30S 05°19' E 011°23'0 0.0
2018-Feb-13 11:00S 05°19' E 011°23'0 0.1
2018-Feb-13 10:30S 05°19' E 011°23'0 0.1
2018-Feb-13 09:59S 05°19' E 011°23'0 0.1
2018-Feb-13 09:30S 05°19' E 011°23'510.1
2018-Feb-13 08:59S 05°15' E 011°27'7 2.2
2018-Feb-13 05:39S 05°10' E 011°33'320.3
2018-Feb-13 05:29S 05°12' E 011°30'917.6
2018-Feb-13 05:00S 05°17' E 011°23'2 4.0
2018-Feb-13 04:30S 05°19' E 011°23'0 0.0
2018-Feb-13 04:00S 05°19' E 011°23'0 0.0
2018-Feb-13 03:30S 05°19' E 011°23'0 0.0
2018-Feb-13 03:00S 05°19' E 011°23'0 0.0
2018-Feb-13 02:30S 05°19' E 011°23'0 0.0
2018-Feb-13 02:00S 05°19' E 011°23'0 0.0
2018-Feb-13 01:30S 05°19' E 011°23'0 0.0
2018-Feb-13 01:00S 05°19' E 011°23'0 0.0
2018-Feb-13 00:30S 05°19' E 011°23'0 0.0
2018-Feb-13 00:00S 05°19' E 011°23'0 0.0
2018-Feb-12 23:30S 05°19' E 011°24'0 0.0
2018-Feb-12 22:59S 05°19' E 011°24'0 0.0
2018-Feb-12 22:30S 05°19' E 011°24'0 0.0
2018-Feb-12 22:00S 05°19' E 011°24'0 0.0
2018-Feb-12 21:30S 05°19' E 011°24'0 0.0
2018-Feb-12 21:00S 05°19' E 011°24'0 0.0
2018-Feb-12 20:30S 05°19' E 011°24'0 0.1
2018-Feb-12 20:00S 05°19' E 011°24'0 0.0
2018-Feb-12 19:30S 05°19' E 011°24'0 0.1
2018-Feb-12 19:00S 05°19' E 011°24'0 0.2
2018-Feb-12 18:30S 05°19' E 011°23'1 2.4
2018-Feb-12 17:59S 05°18' E 011°23'1 2.7
2018-Feb-12 17:30S 05°19' E 011°23'2 3.5
2018-Feb-12 17:00S 05°17' E 011°23'2 3.4
2018-Feb-12 16:30S 05°19' E 011°23'0 0.1
2018-Feb-12 15:57S 05°19' E 011°23'0 0.0
2018-Feb-12 15:30S 05°19' E 011°23'0 0.0
2018-Feb-12 14:59S 05°19' E 011°23'0 0.0
2018-Feb-12 14:30S 05°19' E 011°23'0 0.1
2018-Feb-12 14:00S 05°19' E 011°23'0 0.1
2018-Feb-12 13:29S 05°19' E 011°23'0 0.1
2018-Feb-12 13:00S 05°19' E 011°23'0 0.1
2018-Feb-12 12:28S 05°19' E 011°23'2 3.5
2018-Feb-12 12:00S 05°17' E 011°23'815.2
2018-Feb-12 11:28S 05°11' E 011°28'2 0.4
2018-Feb-12 07:24S 05°11' E 011°30'820.6
2018-Feb-12 07:00S 05°17' E 011°25'2 4.1
2018-Feb-12 06:28S 05°19' E 011°23'0 0.1
2018-Feb-12 06:00S 05°19' E 011°23'0 0.2
2018-Feb-12 05:31S 05°19' E 011°23'2 3.2
2018-Feb-12 05:00S 05°17' E 011°23'0 0.8
2018-Feb-12 04:29S 05°17' E 011°23'1 2.9
2018-Feb-12 04:00S 05°19' E 011°23'0 0.1
2018-Feb-12 03:30S 05°19' E 011°23'0 0.1
2018-Feb-12 03:01S 05°19' E 011°23'0 0.1
2018-Feb-12 02:30S 05°19' E 011°23'0 0.0
2018-Feb-12 02:01S 05°19' E 011°23'0 0.1
2018-Feb-12 01:30S 05°19' E 011°23'0 0.1
2018-Feb-12 01:00S 05°19' E 011°23'0 0.1
2018-Feb-12 00:30S 05°19' E 011°23'0 0.1
2018-Feb-12 00:01S 05°19' E 011°23'0 0.1
2018-Feb-11 23:30S 05°19' E 011°23'0 0.1
2018-Feb-11 23:00S 05°19' E 011°23'0 0.1
2018-Feb-11 22:31S 05°19' E 011°23'0 0.0
2018-Feb-11 22:00S 05°19' E 011°23'0 0.0
2018-Feb-11 21:30S 05°19' E 011°23'0 0.0
2018-Feb-11 21:00S 05°19' E 011°23'0 0.0
2018-Feb-11 20:30S 05°19' E 011°23'0 0.0
2018-Feb-11 20:00S 05°19' E 011°23'0 0.0
2018-Feb-11 19:30S 05°19' E 011°23'0 0.1
2018-Feb-11 19:00S 05°19' E 011°23'0 0.1
2018-Feb-11 18:30S 05°19' E 011°23'0 0.1
2018-Feb-11 18:00S 05°19' E 011°23'0 0.1
2018-Feb-11 17:28S 05°19' E 011°23'1 3.0
2018-Feb-11 17:00S 05°17' E 011°23'1 2.8
2018-Feb-11 16:30S 05°19' E 011°23'0 0.1
2018-Feb-11 16:00S 05°19' E 011°23'0 0.0
2018-Feb-11 15:30S 05°19' E 011°23'0 0.0
2018-Feb-11 15:00S 05°19' E 011°23'0 0.0
2018-Feb-11 14:30S 05°19' E 011°23'0 0.0
2018-Feb-11 14:00S 05°19' E 011°23'0 0.4
2018-Feb-11 13:30S 05°19' E 011°23'713.0
2018-Feb-11 12:58S 05°13' E 011°27'7 1.5
2018-Feb-11 08:22S 05°09' E 011°32'820.8
2018-Feb-11 07:58S 05°16' E 011°27'510.3
2018-Feb-11 07:30S 05°19' E 011°24'1 1.8
2018-Feb-11 07:00S 05°19' E 011°23'0 0.0
2018-Feb-11 06:29S 05°19' E 011°23'1 1.5
2018-Feb-11 05:55S 05°18' E 011°23'1 2.1
2018-Feb-11 05:30S 05°19' E 011°23'2 3.2
2018-Feb-11 05:00S 05°17' E 011°23'0 0.4
2018-Feb-11 04:29S 05°17' E 011°23'1 1.8
2018-Feb-11 04:00S 05°18' E 011°23'1 1.2
2018-Feb-11 03:29S 05°19' E 011°23'0 0.1
2018-Feb-11 03:00S 05°19' E 011°23'0 0.1
2018-Feb-11 02:30S 05°19' E 011°23'0 0.0
2018-Feb-11 02:00S 05°19' E 011°23'0 0.0
2018-Feb-11 01:30S 05°19' E 011°23'0 0.0
2018-Feb-11 01:00S 05°19' E 011°23'0 0.0
2018-Feb-11 00:30S 05°19' E 011°23'0 0.0
2018-Feb-11 00:00S 05°19' E 011°23'0 0.1
2018-Feb-10 23:28S 05°19' E 011°23'0 0.1
2018-Feb-10 23:00S 05°19' E 011°23'0 0.1
2018-Feb-10 22:29S 05°19' E 011°23'0 0.1
2018-Feb-10 22:00S 05°19' E 011°23'0 0.0
2018-Feb-10 21:21S 05°19' E 011°23'0 0.1
2018-Feb-10 20:58S 05°19' E 011°23'0 0.1
2018-Feb-10 20:29S 05°19' E 011°23'0 0.0
2018-Feb-10 20:00S 05°19' E 011°23'5 9.6
2018-Feb-10 19:30S 05°14' E 011°25'  
2018-Feb-06 10:35S 04°56' E 011°52'0 1.1
2018-Feb-06 10:30S 04°56' E 011°52'  

Dump ship's entire track history